createdAt,value
2022-11-03T00:04:07.948Z,80
2022-11-03T00:09:09.543Z,80
2022-11-03T00:14:11.004Z,80
2022-11-03T00:19:12.946Z,80
2022-11-03T00:24:14.925Z,80
2022-11-03T00:29:16.734Z,80
2022-11-03T00:34:18.113Z,80
2022-11-03T00:39:20.135Z,80
2022-11-03T00:44:21.520Z,81
2022-11-03T00:49:23.245Z,80
2022-11-03T00:54:24.632Z,82
2022-11-03T00:59:26.051Z,82
2022-11-03T01:04:27.910Z,81
2022-11-03T01:09:29.328Z,82
2022-11-03T01:14:30.901Z,82
2022-11-03T01:19:32.134Z,81
2022-11-03T01:24:33.545Z,81
2022-11-03T01:29:35.545Z,82
2022-11-03T01:34:36.855Z,82
2022-11-03T01:39:38.364Z,82
2022-11-03T01:44:40.540Z,84
2022-11-03T01:49:42.584Z,83
2022-11-03T01:54:43.728Z,83
2022-11-03T01:59:45.436Z,84
2022-11-03T02:04:47.544Z,84
2022-11-03T02:09:49.663Z,83
2022-11-03T02:14:51.849Z,83
2022-11-03T02:19:53.313Z,83
2022-11-03T02:24:55.222Z,83
2022-11-03T02:29:56.617Z,83
2022-11-03T02:34:57.769Z,83
2022-11-03T02:39:59.213Z,83
2022-11-03T02:45:01.209Z,83
2022-11-03T02:50:02.501Z,83
2022-11-03T02:55:03.865Z,83
2022-11-03T03:00:05.536Z,84
2022-11-03T03:05:06.985Z,85
2022-11-03T03:10:08.997Z,86
2022-11-03T03:15:10.609Z,85
2022-11-03T03:20:12.794Z,86
2022-11-03T03:25:14.529Z,86
2022-11-03T03:30:16.472Z,86
2022-11-03T03:35:17.884Z,86
2022-11-03T03:40:19.622Z,87
2022-11-03T03:45:21.211Z,87
2022-11-03T03:50:22.524Z,88
2022-11-03T04:00:25.260Z,90
2022-11-03T04:05:26.429Z,90
2022-11-03T04:10:28.568Z,90
2022-11-03T04:15:30.539Z,91
2022-11-03T04:20:31.918Z,91
2022-11-03T04:25:33.579Z,92
2022-11-03T04:30:35.552Z,93
2022-11-03T04:35:36.698Z,92
2022-11-03T04:40:38.094Z,91
2022-11-03T04:45:39.432Z,92
2022-11-03T04:50:45.638Z,92
2022-11-03T04:55:42.333Z,91
2022-11-03T05:00:44.352Z,91
2022-11-03T05:05:46.132Z,91
2022-11-03T05:10:47.636Z,91
2022-11-03T05:15:49.163Z,91
2022-11-03T05:20:50.608Z,92
2022-11-03T05:25:51.944Z,91
2022-11-03T05:30:54.097Z,91
2022-11-03T05:35:55.601Z,90
2022-11-03T05:40:57.205Z,91
2022-11-03T05:45:58.700Z,91
2022-11-03T05:51:00.676Z,92
2022-11-03T05:56:01.958Z,92
2022-11-03T06:01:04.027Z,92
2022-11-03T06:06:05.707Z,92
2022-11-03T06:11:06.878Z,92
2022-11-03T06:16:08.336Z,92
2022-11-03T06:21:09.884Z,92
2022-11-03T06:26:12.074Z,93
2022-11-03T06:31:14.999Z,93
2022-11-03T06:36:15.915Z,93
2022-11-03T06:51:21.352Z,93
2022-11-03T07:01:24.462Z,93
2022-11-03T07:16:29.950Z,92
2022-11-03T07:26:33.661Z,93
2022-11-03T07:36:37.043Z,93
2022-11-03T07:41:38.737Z,94
2022-11-03T07:46:39.987Z,95
2022-11-03T07:51:41.693Z,96
2022-11-03T07:56:43.553Z,95
2022-11-03T08:01:45.185Z,95
2022-11-03T08:06:46.231Z,97
2022-11-03T08:11:48.185Z,96
2022-11-03T08:16:49.460Z,100
2022-11-03T08:21:50.791Z,86
2022-11-03T08:26:52.446Z,76
2022-11-03T08:31:53.913Z,79
2022-11-03T08:36:55.327Z,79
2022-11-03T08:41:57.371Z,79
2022-11-03T08:46:58.834Z,80
2022-11-03T08:52:00.371Z,81
2022-11-03T08:57:02.419Z,81
2022-11-03T09:02:03.910Z,82
2022-11-03T09:07:04.998Z,83
2022-11-03T09:12:07.023Z,82
2022-11-03T09:17:08.655Z,80
2022-11-03T09:22:10.042Z,80
2022-11-03T09:27:11.853Z,80
2022-11-03T09:32:14.351Z,79
2022-11-03T09:37:15.432Z,79
2022-11-03T09:42:17.146Z,80
2022-11-03T09:47:18.626Z,80
2022-11-03T09:52:20.267Z,80
2022-11-03T09:57:22.305Z,80
2022-11-03T10:02:24.557Z,79
2022-11-03T10:07:26.091Z,77
2022-11-03T10:12:28.015Z,76
2022-11-03T10:17:29.523Z,76
2022-11-03T10:22:31.136Z,75
2022-11-03T10:27:32.664Z,75
2022-11-03T10:32:34.576Z,74
2022-11-03T10:37:35.905Z,75
2022-11-03T10:42:37.923Z,75
2022-11-03T10:47:39.435Z,75
2022-11-03T10:52:41.438Z,75
2022-11-03T10:57:43.244Z,75
2022-11-03T11:02:45.432Z,75
2022-11-03T11:07:46.933Z,74
2022-11-03T11:12:48.467Z,74
2022-11-03T11:17:49.984Z,73
2022-11-03T11:22:51.132Z,73
2022-11-03T11:27:55.400Z,72
2022-11-03T11:32:54.211Z,71
2022-11-03T11:37:55.965Z,69
2022-11-03T11:42:57.665Z,69
2022-11-03T11:47:59.391Z,69
2022-11-03T11:53:00.955Z,69
2022-11-03T11:58:02.352Z,68
2022-11-03T12:03:04.495Z,69
2022-11-03T12:08:05.680Z,69
2022-11-03T12:13:06.920Z,69
2022-11-03T12:18:09.260Z,69
2022-11-03T12:23:11.128Z,68
2022-11-03T12:28:12.447Z,69
2022-11-03T12:33:14.210Z,68
2022-11-03T12:38:16.217Z,70
2022-11-03T12:43:18.348Z,71
2022-11-03T12:48:20.041Z,67
2022-11-03T12:53:21.369Z,67
2022-11-03T12:58:23.230Z,62
2022-11-03T13:03:25.371Z,64
2022-11-03T13:08:27.139Z,61
2022-11-03T13:13:29.113Z,63
2022-11-03T13:18:31.047Z,66
2022-11-03T13:23:39.463Z,68
2022-11-03T13:28:41.630Z,69
2022-11-03T13:33:42.861Z,70
2022-11-03T13:38:44.422Z,71
2022-11-03T13:43:46.456Z,71
2022-11-03T14:08:54.721Z,73
2022-11-03T14:13:56.339Z,73
2022-11-03T14:18:58.316Z,74
2022-11-03T14:24:00.314Z,74
2022-11-03T14:29:01.933Z,74
2022-11-03T14:34:03.701Z,75
2022-11-03T14:39:05.353Z,76
2022-11-03T14:44:07.047Z,77
2022-11-03T14:49:09.302Z,77
2022-11-03T14:54:10.453Z,78
2022-11-03T14:59:12.245Z,79
2022-11-03T15:04:13.531Z,80
2022-11-03T15:09:14.996Z,79
2022-11-03T15:14:16.415Z,80
2022-11-03T15:19:17.895Z,80
2022-11-03T15:29:21.590Z,80
2022-11-03T15:34:23.706Z,80
2022-11-03T15:39:25.512Z,81
2022-11-03T15:44:27.224Z,82
2022-11-03T15:49:29.430Z,82
2022-11-03T15:54:30.673Z,83
2022-11-03T15:59:32.296Z,84
2022-11-03T16:04:34.578Z,83
2022-11-03T16:09:35.835Z,83
2022-11-03T16:14:37.504Z,83
2022-11-03T16:19:39.234Z,83
2022-11-03T16:24:40.474Z,83
2022-11-03T16:29:42.514Z,83
2022-11-03T16:34:43.986Z,83
2022-11-03T16:39:45.251Z,83
2022-11-03T16:44:46.987Z,83
2022-11-03T16:49:48.287Z,83
2022-11-03T16:54:49.877Z,83
2022-11-03T16:59:51.127Z,83
2022-11-03T17:04:52.902Z,85
2022-11-03T17:09:54.579Z,85
2022-11-03T17:14:56.851Z,85
2022-11-03T17:19:58.223Z,85
2022-11-03T17:24:59.528Z,85
2022-11-03T17:30:01.688Z,85
2022-11-03T17:35:03.371Z,84
2022-11-03T17:40:05.144Z,85
2022-11-03T17:45:06.507Z,85
2022-11-03T17:50:08.721Z,86
2022-11-03T17:55:09.992Z,86
2022-11-03T18:00:11.591Z,87
2022-11-03T18:05:14.069Z,86
2022-11-03T18:10:14.206Z,87
2022-11-03T18:15:15.826Z,87
2022-11-03T18:20:17.400Z,86
2022-11-03T18:25:18.756Z,87
2022-11-03T18:30:20.775Z,87
2022-11-03T18:35:22.347Z,86
2022-11-03T18:40:24.408Z,86
2022-11-03T18:45:26.503Z,87
2022-11-03T18:50:27.799Z,88
2022-11-03T18:55:29.024Z,88
2022-11-03T19:00:30.714Z,89
2022-11-03T19:05:32.424Z,89
2022-11-03T19:10:33.745Z,88
2022-11-03T19:15:35.794Z,89
2022-11-03T19:20:37.694Z,89
2022-11-03T19:25:39.584Z,89
2022-11-03T19:30:41.660Z,89
2022-11-03T19:35:43.238Z,89
2022-11-03T19:40:45.015Z,89
2022-11-03T19:45:46.222Z,89
2022-11-03T19:50:47.973Z,89
2022-11-03T19:55:49.504Z,89
2022-11-03T20:00:50.923Z,89
2022-11-03T20:05:52.996Z,89
2022-11-03T20:10:54.937Z,89
2022-11-03T20:16:00.456Z,89
2022-11-03T20:20:58.320Z,89
2022-11-03T20:25:59.892Z,88
2022-11-03T20:31:01.918Z,89
2022-11-03T20:36:03.858Z,89
2022-11-03T20:41:06.063Z,88
2022-11-03T20:46:07.533Z,88
2022-11-03T20:51:09.144Z,90
2022-11-03T20:56:10.886Z,90
2022-11-03T21:01:12.744Z,90
2022-11-03T21:06:14.842Z,89
2022-11-03T21:16:24.293Z,90
2022-11-03T21:36:23.431Z,92
2022-11-03T22:06:34.832Z,90
2022-11-03T22:11:36.902Z,90
2022-11-03T22:16:38.949Z,89
2022-11-03T22:21:40.722Z,89
2022-11-03T22:26:42.189Z,89
2022-11-03T22:31:44.002Z,88
2022-11-03T22:36:45.244Z,88
2022-11-03T22:41:46.877Z,89
2022-11-03T22:46:48.588Z,88
2022-11-03T22:51:50.400Z,88
2022-11-03T22:56:51.943Z,89
2022-11-03T23:12:00.742Z,89
2022-11-03T23:16:58.617Z,89
2022-11-03T23:22:00.413Z,89
2022-11-03T23:27:01.748Z,88
2022-11-03T23:32:03.376Z,88
2022-11-03T23:37:04.617Z,88
2022-11-03T23:42:05.999Z,86
2022-11-03T23:47:07.576Z,84
2022-11-03T23:52:08.667Z,82
2022-11-03T23:57:10.763Z,80
